createdAt,value
2022-10-18T00:04:24.467Z,3.90
2022-10-18T00:09:26.480Z,4.37
2022-10-18T00:14:29.921Z,3.83
2022-10-18T00:19:31.994Z,4.67
2022-10-18T00:24:33.891Z,3.67
2022-10-18T00:29:37.520Z,4.00
2022-10-18T00:34:40.095Z,4.50
2022-10-18T00:39:42.217Z,4.60
2022-10-18T00:45:14.796Z,4.87
2022-10-18T00:50:17.389Z,4.00
2022-10-18T00:55:20.032Z,9.43
2022-10-18T01:00:23.625Z,3.87
2022-10-18T01:05:26.526Z,4.03
2022-10-18T01:10:37.873Z,5.30
2022-10-18T01:15:54.648Z,4.93
2022-10-18T01:21:10.587Z,3.40
2022-10-18T01:26:26.765Z,5.23
2022-10-18T01:31:35.080Z,4.27
2022-10-18T01:36:41.435Z,5.43
2022-10-18T01:41:45.741Z,6.67
2022-10-18T01:46:51.429Z,5.00
2022-10-18T01:51:53.776Z,11.87
2022-10-18T01:57:00.555Z,7.20
2022-10-18T02:02:15.840Z,6.40
2022-10-18T02:07:26.993Z,5.23
2022-10-18T02:12:32.568Z,5.57
2022-10-18T02:17:37.283Z,5.93
2022-10-18T02:22:40.030Z,6.33
2022-10-18T02:27:42.968Z,9.00
2022-10-18T02:32:49.771Z,10.47
2022-10-18T02:37:54.001Z,9.30
2022-10-18T02:42:58.123Z,11.00
2022-10-18T02:48:01.801Z,10.07
2022-10-18T02:53:03.749Z,7.53
2022-10-18T02:58:05.811Z,8.80
2022-10-18T03:03:09.318Z,8.80
2022-10-18T03:08:10.968Z,10.47
2022-10-18T03:13:13.132Z,8.87
2022-10-18T03:18:16.750Z,11.63
2022-10-18T03:23:18.781Z,10.27
2022-10-18T03:28:21.279Z,7.43
2022-10-18T03:33:24.739Z,7.97
2022-10-18T03:38:27.139Z,8.37
2022-10-18T03:43:28.923Z,8.07
2022-10-18T03:48:32.003Z,8.77
2022-10-18T03:53:34.306Z,7.80
2022-10-18T03:58:36.244Z,7.47
2022-10-18T04:03:39.276Z,10.97
2022-10-18T04:08:41.061Z,11.23
2022-10-18T04:13:43.078Z,8.07
2022-10-18T04:18:46.635Z,6.97
2022-10-18T04:23:48.849Z,7.70
2022-10-18T04:28:51.031Z,7.50
2022-10-18T04:33:54.993Z,7.13
2022-10-18T04:38:57.273Z,7.73
2022-10-18T04:43:58.931Z,6.40
2022-10-18T04:49:02.293Z,7.10
2022-10-18T04:54:04.388Z,7.83
2022-10-18T04:59:06.354Z,7.73
2022-10-18T05:04:09.600Z,8.20
2022-10-18T05:09:11.827Z,5.97
2022-10-18T05:14:13.943Z,7.70
2022-10-18T05:19:17.505Z,6.20
2022-10-18T05:24:21.054Z,9.70
2022-10-18T05:29:25.644Z,9.77
2022-10-18T05:34:28.798Z,6.80
2022-10-18T05:39:30.891Z,10.17
2022-10-18T05:44:33.092Z,9.03
2022-10-18T05:49:36.187Z,9.53
2022-10-18T05:54:38.546Z,8.00
2022-10-18T05:59:40.531Z,8.07
2022-10-18T06:04:43.530Z,7.63
2022-10-18T06:09:45.178Z,11.83
2022-10-18T06:14:47.026Z,11.20
2022-10-18T06:19:50.454Z,10.20
2022-10-18T06:24:57.124Z,10.57
2022-10-18T06:29:59.453Z,7.33
2022-10-18T06:35:02.941Z,9.60
2022-10-18T06:40:06.524Z,7.20
2022-10-18T06:45:09.733Z,9.83
2022-10-18T06:50:13.037Z,8.30
2022-10-18T06:55:15.409Z,11.30
2022-10-18T07:00:17.338Z,11.60
2022-10-18T07:05:20.821Z,9.27
2022-10-18T07:10:23.002Z,11.60
2022-10-18T07:15:24.856Z,9.67
2022-10-18T07:20:27.941Z,9.30
2022-10-18T07:25:31.074Z,9.30
2022-10-18T07:30:33.749Z,9.77
2022-10-18T07:35:37.134Z,9.97
2022-10-18T07:40:39.880Z,8.70
2022-10-18T07:45:42.222Z,9.63
2022-10-18T07:50:45.728Z,8.80
2022-10-18T07:55:48.149Z,9.73
2022-10-18T08:00:50.161Z,9.80
2022-10-18T08:05:54.846Z,8.67
2022-10-18T08:11:02.388Z,11.37
2022-10-18T08:16:06.424Z,10.77
2022-10-18T08:21:11.875Z,7.00
2022-10-18T08:26:16.737Z,9.60
2022-10-18T08:31:19.226Z,6.10
2022-10-18T08:36:22.584Z,7.17
2022-10-18T08:41:43.046Z,7.97
2022-10-18T08:46:47.365Z,7.20
2022-10-18T08:51:52.037Z,7.27
2022-10-18T08:56:59.641Z,9.57
2022-10-18T09:02:15.746Z,8.50
2022-10-18T09:07:33.336Z,6.33
2022-10-18T09:12:52.835Z,6.57
2022-10-18T09:18:08.784Z,7.07
2022-10-18T09:23:20.546Z,13.30
2022-10-18T09:28:41.337Z,7.97
2022-10-18T09:33:51.048Z,8.47
2022-10-18T09:39:00.542Z,9.33
2022-10-18T09:44:11.037Z,8.33
2022-10-18T09:49:19.045Z,7.77
2022-10-18T09:54:29.586Z,9.03
2022-10-18T09:59:40.500Z,7.93
2022-10-18T10:04:43.153Z,8.30
2022-10-18T10:09:48.689Z,8.47
2022-10-18T10:14:50.665Z,9.70
2022-10-18T10:19:59.898Z,8.17
2022-10-18T10:25:04.082Z,9.83
2022-10-18T10:30:22.649Z,6.93
2022-10-18T10:35:41.570Z,6.50
2022-10-18T10:40:54.254Z,5.90
2022-10-18T10:45:59.930Z,8.27
2022-10-18T10:51:06.033Z,6.97
2022-10-18T10:56:18.419Z,6.77
2022-10-18T11:01:38.126Z,7.37
2022-10-18T11:06:47.483Z,5.90
2022-10-18T11:12:01.203Z,5.33
2022-10-18T11:17:14.994Z,5.73
2022-10-18T11:22:22.822Z,7.07
2022-10-18T11:27:31.573Z,6.23
2022-10-18T11:32:41.897Z,4.03
2022-10-18T11:37:58.479Z,6.57
2022-10-18T11:43:11.116Z,3.67
2022-10-18T11:48:32.522Z,3.70
2022-10-18T11:53:46.172Z,3.93
2022-10-18T11:59:19.081Z,4.17
2022-10-18T12:04:26.104Z,5.60
2022-10-18T12:09:32.742Z,5.37
2022-10-18T12:14:40.523Z,6.27
2022-10-18T12:19:43.480Z,5.07
2022-10-18T12:24:45.180Z,5.97
2022-10-18T12:29:54.798Z,4.73
2022-10-18T12:35:00.505Z,5.30
2022-10-18T12:40:11.119Z,4.90
2022-10-18T12:45:25.403Z,5.60
2022-10-18T12:50:31.903Z,6.37
2022-10-18T12:55:36.116Z,6.03
2022-10-18T13:01:09.553Z,4.40
2022-10-18T13:06:11.658Z,5.47
2022-10-18T13:11:37.906Z,6.07
2022-10-18T13:16:48.648Z,6.20
2022-10-18T13:22:06.760Z,6.13
2022-10-18T13:27:42.374Z,6.00
2022-10-18T13:32:53.766Z,5.73
2022-10-18T13:37:59.910Z,6.83
2022-10-18T13:43:52.735Z,8.20
2022-10-18T13:49:00.636Z,7.20
2022-10-18T13:54:13.967Z,7.20
2022-10-18T13:59:37.827Z,6.33
2022-10-18T14:05:23.698Z,6.33
2022-10-18T14:10:44.147Z,8.03
2022-10-18T14:16:01.886Z,6.30
2022-10-18T14:21:14.198Z,6.67
2022-10-18T14:26:20.257Z,6.90
2022-10-18T14:31:22.038Z,7.03
2022-10-18T14:36:26.946Z,5.97
2022-10-18T14:41:30.291Z,7.53
2022-10-18T14:46:32.291Z,6.33
2022-10-18T14:51:36.963Z,5.87
2022-10-18T14:56:41.456Z,7.20
2022-10-18T15:01:53.793Z,9.80
2022-10-18T15:06:57.650Z,7.73
2022-10-18T15:12:01.209Z,6.87
2022-10-18T15:17:08.121Z,6.27
2022-10-18T15:22:31.789Z,6.80
2022-10-18T15:27:37.570Z,6.87
2022-10-18T15:32:48.121Z,7.57
2022-10-18T15:37:52.419Z,8.83
2022-10-18T15:42:56.549Z,9.33
2022-10-18T15:48:01.456Z,10.67
2022-10-18T15:53:23.951Z,8.80
2022-10-18T15:58:27.306Z,11.90
2022-10-18T16:03:29.046Z,10.23
2022-10-18T16:08:32.414Z,12.97
2022-10-18T16:13:34.382Z,11.40
2022-10-18T16:18:36.116Z,14.63
2022-10-18T16:23:39.316Z,9.20
2022-10-18T16:28:42.315Z,10.17
2022-10-18T16:33:44.343Z,9.43
2022-10-18T16:38:48.906Z,8.23
2022-10-18T16:43:51.574Z,8.43
2022-10-18T16:48:54.656Z,8.37
2022-10-18T16:53:58.047Z,12.07
2022-10-18T16:59:01.046Z,9.93
2022-10-18T17:04:03.072Z,11.63
2022-10-18T17:09:06.485Z,12.60
2022-10-18T17:14:09.009Z,11.60
2022-10-18T17:19:11.710Z,10.70
2022-10-18T17:24:14.893Z,9.53
2022-10-18T17:29:16.747Z,9.70
2022-10-18T17:34:21.228Z,8.33
2022-10-18T17:39:24.842Z,9.97
2022-10-18T17:44:27.221Z,14.20
2022-10-18T17:49:29.423Z,13.83
2022-10-18T17:54:44.763Z,13.57
2022-10-18T17:59:49.621Z,8.87
2022-10-18T18:04:54.462Z,10.40
2022-10-18T18:09:58.504Z,6.50
2022-10-18T18:15:00.773Z,7.43
2022-10-18T18:20:02.965Z,6.53
2022-10-18T18:25:07.352Z,8.03
2022-10-18T18:30:10.035Z,8.50
2022-10-18T18:35:12.079Z,8.10
2022-10-18T18:40:15.952Z,7.40
2022-10-18T18:45:18.061Z,7.13
2022-10-18T18:50:20.357Z,8.03
2022-10-18T18:55:24.298Z,8.27
2022-10-18T19:00:26.461Z,8.87
2022-10-18T19:05:28.842Z,10.13
2022-10-18T19:10:32.799Z,12.47
2022-10-18T19:15:35.229Z,12.73
2022-10-18T19:20:36.986Z,12.57
2022-10-18T19:25:40.091Z,9.90
2022-10-18T19:30:41.768Z,11.10
2022-10-18T19:35:43.400Z,11.47
2022-10-18T19:40:51.564Z,11.40
2022-10-18T19:45:55.570Z,13.20
2022-10-18T19:51:03.021Z,11.37
2022-10-18T19:56:09.734Z,10.37
2022-10-18T20:01:11.678Z,9.77
2022-10-18T20:06:14.396Z,10.93
2022-10-18T20:11:19.364Z,11.57
2022-10-18T20:16:27.878Z,11.53
2022-10-18T20:21:31.872Z,10.80
2022-10-18T20:26:35.007Z,9.83
2022-10-18T20:31:36.735Z,10.50
2022-10-18T20:36:39.208Z,11.10
2022-10-18T20:41:42.592Z,8.97
2022-10-18T20:46:44.849Z,10.10
2022-10-18T20:51:46.526Z,9.13
2022-10-18T20:56:49.830Z,9.20
2022-10-18T21:01:51.952Z,8.83
2022-10-18T21:06:54.056Z,11.10
2022-10-18T21:11:57.832Z,9.47
2022-10-18T21:16:59.944Z,9.30
2022-10-18T21:22:01.939Z,7.83
2022-10-18T21:27:05.138Z,10.93
2022-10-18T21:32:07.367Z,8.90
2022-10-18T21:37:09.361Z,8.17
2022-10-18T21:42:12.886Z,8.63
2022-10-18T21:47:14.990Z,8.27
2022-10-18T21:52:17.193Z,6.83
2022-10-18T21:57:20.631Z,9.33
2022-10-18T22:02:22.711Z,7.47
2022-10-18T22:07:24.845Z,10.07
2022-10-18T22:12:27.955Z,5.37
2022-10-18T22:17:30.364Z,12.27
2022-10-18T22:22:32.588Z,7.40
2022-10-18T22:27:36.330Z,7.37
2022-10-18T22:32:38.657Z,8.20
2022-10-18T22:37:40.745Z,9.60
2022-10-18T22:42:44.126Z,6.43
2022-10-18T22:47:46.176Z,4.90
2022-10-18T22:52:49.697Z,6.53
2022-10-18T22:57:56.664Z,10.37
2022-10-18T23:02:58.419Z,10.50
2022-10-18T23:08:00.574Z,6.47
2022-10-18T23:13:04.326Z,5.90
2022-10-18T23:18:06.970Z,6.77
2022-10-18T23:23:08.706Z,5.33
2022-10-18T23:28:12.155Z,12.40
2022-10-18T23:33:14.008Z,6.73
2022-10-18T23:38:16.202Z,6.33
2022-10-18T23:43:19.592Z,8.80
2022-10-18T23:48:21.580Z,10.13
2022-10-18T23:53:23.828Z,7.47
2022-10-18T23:58:28.521Z,7.30
